CYXX

Abbotsford Airport

Abbotsford, , Canada
TAF CYXX 160542Z 1606/1706 05005KT P6SM BKN080 OVC100 TEMPO 1606/1608 P6SM -RA OVC080 FM160800 06010G20KT P6SM -RA OVC060 TEMPO 1608/1622 5SM -RA BR OVC040 BECMG 1614/1616 06015G25KT FM162300 07010KT P6SM -SHRA BKN040 BKN100 BECMG 1700/1702 17010KT RMK NXT FCST BY 161200Z
Issued Valid From Valid To
Dec-16 @ 05:42 UTC
(37 minutes ago)
Dec-16 @ 06:00 UTC
(19 minutes ago)
Dec-17 @ 06:00 UTC
(in 24 hours)
Dec-16 @ 06:00 to Dec-16 @ 08:00
TAF CYXX 160542Z 1606/1706 05005KT P6SM BKN080 OVC100
Wind Visibility Clouds
50° at 5 knots Greater than 6 miles
  • Broken at 8,000' AGL
  • Overcast at 10,000' AGL
Temporary Dec-16 @ 06:00 to Dec-16 @ 08:00
TEMPO 1606/1608 P6SM -RA OVC080
Visibility Clouds Conditions
Greater than 6 miles
  • Overcast at 8,000' AGL
  • Light Rain
From Dec-16 @ 08:00 to Dec-16 @ 14:00
FM160800 06010G20KT P6SM -RA OVC060
Wind Visibility Clouds Conditions
60° at 10 knots
 Gusting to 20 knots
Greater than 6 miles
  • Overcast at 6,000' AGL
  • Light Rain
Temporary Dec-16 @ 08:00 to Dec-16 @ 22:00
TEMPO 1608/1622 5SM -RA BR OVC040
Visibility Clouds Conditions
5 miles
  • Overcast at 4,000' AGL
  • Light Rain
  • Mist
Becoming Dec-16 @ 14:00 to Dec-16 @ 23:00
BECMG 1614/1616 06015G25KT
Wind Visibility Clouds Conditions
60° at 15 knots
 Gusting to 25 knots
Greater than 6 miles
  • Overcast at 6,000' AGL
  • Light Rain
From Dec-16 @ 23:00 to Dec-17 @ 00:00
FM162300 07010KT P6SM -SHRA BKN040 BKN100
Wind Visibility Clouds Conditions
70° at 10 knots Greater than 6 miles
  • Broken at 4,000' AGL
  • Broken at 10,000' AGL
  • Light Rain
Becoming Dec-17 @ 00:00 to Dec-17 @ 06:00
BECMG 1700/1702 17010KT RMK NXT FCST BY 161200Z
Wind Visibility Clouds Conditions
170° at 10 knots Greater than 6 miles
  • Broken at 4,000' AGL
  • Broken at 10,000' AGL
  • Light Rain
TAF CYXX 160542Z 1606/1706 05005KT P6SM BKN080 OVC100 TEMPO 1606/1608 P6SM -RA OVC080 FM160800 06010G20KT P6SM -RA OVC060 TEMPO 1608/1622 5SM -RA BR OVC040 BECMG 1614/1616 06015G25KT FM162300 07010KT P6SM -SHRA BKN040 BKN100 BECMG 1700/1702 17010KT RMK NXT FCST BY 161200Z
Issued Dec-16 @ 05:42 UTC
(37 minutes ago)
Valid From Dec-16 @ 06:00 UTC
(19 minutes ago)
Valid To Dec-17 @ 06:00 UTC
(in 24 hours)
Dec-16 @ 06:00 - Dec-16 @ 08:00
Wind Visibility
50° at 5 knots Greater than 6 miles
Clouds
  • Broken at 8,000' AGL
  • Overcast at 10,000' AGL
Temporary Dec-16 @ 06:00 - Dec-16 @ 08:00
Clouds
  • Overcast at 8,000' AGL
Conditions
  • Light Rain
From Dec-16 @ 08:00 - Dec-16 @ 14:00
Wind Visibility
60° at 10 knots
 Gusting to 20 knots
Greater than 6 miles
Clouds
  • Overcast at 6,000' AGL
Conditions
  • Light Rain
Temporary Dec-16 @ 08:00 - Dec-16 @ 22:00
Clouds
  • Overcast at 4,000' AGL
Conditions
  • Light Rain
  • Mist
Becoming Dec-16 @ 14:00 - Dec-16 @ 23:00
Wind Visibility
60° at 15 knots
 Gusting to 25 knots
Greater than 6 miles
Clouds
  • Overcast at 6,000' AGL
Conditions
  • Light Rain
From Dec-16 @ 23:00 - Dec-17 @ 00:00
Wind Visibility
70° at 10 knots Greater than 6 miles
Clouds
  • Broken at 4,000' AGL
  • Broken at 10,000' AGL
Conditions
  • Light Rain
Becoming Dec-17 @ 00:00 - Dec-17 @ 06:00
Wind Visibility
170° at 10 knots Greater than 6 miles
Clouds
  • Broken at 4,000' AGL
  • Broken at 10,000' AGL
Conditions
  • Light Rain